Matawan, New Jersey
Current Conditions -  °F | °C
As of 12:15 PM on Friday 24 Oct 2014 (Local Time) from KLDJ Reporting Station
Overcast Overcast  
Wind Chill: 62°   Ceiling: 3700
Heat Index: 62°   Visibility: 10mi
Dew Point: 47°   Wind: 12mph
Humidity: 56%   Direction: 310°NW
Pressure: 29.84"   Gusts: 16mph
Location:  40.41°N, 74.23°W
Report Text: KLDJ 241615Z AUTO 31010G14KT 10SM OVC037 17/08 A2984 RMK AO2 T01690081
Loading
Personal Weather Stations






























Interactive Weather Map
Tropical Storm Tracking
New forecast layout! Learn more

10-Day Weather Forecast

Advertisements
Track Severe Weather on mobile